TimeCDT,TemperatureF,Dew PointF,Humidity,Sea Level PressureIn,VisibilityMPH,Wind Direction,Wind SpeedMPH,Gust SpeedMPH,PrecipitationIn,Events,Conditions,WindDirDegrees,DateUTC
12:53 AM,66.9,57.9,73,30.02,10.0,ESE,6.9,-,N/A,,Clear,110,2014-08-15 05:53:00
1:53 AM,66.0,57.0,73,30.03,10.0,ESE,4.6,-,N/A,,Clear,110,2014-08-15 06:53:00
2:53 AM,64.9,57.9,78,30.01,10.0,ESE,6.9,-,N/A,,Clear,120,2014-08-15 07:53:00
3:53 AM,64.9,57.9,78,30.01,10.0,ESE,5.8,-,N/A,,Clear,110,2014-08-15 08:53:00
4:53 AM,64.0,59.0,84,30.01,10.0,ESE,5.8,-,N/A,,Clear,120,2014-08-15 09:53:00
5:53 AM,63.0,59.0,87,30.03,10.0,ESE,5.8,-,N/A,,Mostly Cloudy,110,2014-08-15 10:53:00
6:53 AM,62.1,59.0,90,30.04,10.0,ESE,4.6,-,N/A,,Scattered Clouds,110,2014-08-15 11:53:00
7:53 AM,63.0,57.9,84,30.05,10.0,SE,5.8,-,N/A,,Clear,130,2014-08-15 12:53:00
8:53 AM,64.4,57.2,77,30.05,10.0,SE,9.2,-,N/A,,Clear,140,2014-08-15 13:53:00
9:53 AM,68.0,59.0,73,30.04,10.0,SSE,6.9,-,N/A,,Mostly Cloudy,160,2014-08-15 14:53:00
10:53 AM,69.1,61.0,75,30.05,10.0,East,3.5,-,N/A,,Clear,100,2014-08-15 15:53:00
11:53 AM,69.1,61.0,75,30.05,10.0,East,4.6,-,N/A,,Scattered Clouds,80,2014-08-15 16:53:00
12:53 PM,71.1,62.1,73,30.03,10.0,East,5.8,-,N/A,,Clear,90,2014-08-15 17:53:00
1:53 PM,71.1,62.1,73,30.02,10.0,ESE,6.9,-,N/A,,Mostly Cloudy,110,2014-08-15 18:53:00
2:53 PM,71.1,63.0,75,29.99,10.0,SSE,9.2,-,N/A,,Mostly Cloudy,150,2014-08-15 19:53:00
3:53 PM,71.1,63.0,75,29.99,10.0,SSE,4.6,-,0.00,Rain,Light Rain,160,2014-08-15 20:53:00
4:53 PM,70.0,64.9,84,29.99,10.0,South,6.9,-,0.00,Rain,Light Rain,190,2014-08-15 21:53:00
5:53 PM,70.0,66.0,87,29.97,10.0,SSE,6.9,-,0.00,,Mostly Cloudy,150,2014-08-15 22:53:00
6:53 PM,70.0,66.9,90,29.96,10.0,South,4.6,-,0.00,Rain,Light Rain,180,2014-08-15 23:53:00
7:53 PM,69.1,66.9,93,29.95,10.0,South,3.5,-,0.00,,Scattered Clouds,180,2014-08-16 00:53:00
8:40 PM,69.1,66.9,93,29.95,10.0,SE,3.5,-,N/A,,Mostly Cloudy,140,2014-08-16 01:40:00
8:53 PM,69.1,66.9,93,29.95,10.0,SE,3.5,-,N/A,,Overcast,130,2014-08-16 01:53:00
9:28 PM,69.1,66.9,93,29.95,10.0,SE,5.8,-,N/A,,Mostly Cloudy,130,2014-08-16 02:28:00
9:42 PM,69.1,66.9,93,29.95,10.0,SE,3.5,-,N/A,,Mostly Cloudy,130,2014-08-16 02:42:00
9:53 PM,69.1,66.9,93,29.94,10.0,SE,4.6,-,N/A,,Mostly Cloudy,140,2014-08-16 02:53:00
10:53 PM,68.0,66.0,93,29.92,10.0,SSE,8.1,-,N/A,,Mostly Cloudy,150,2014-08-16 03:53:00